Micco, Florida
Current Conditions -  °F | °C
As of 7:37 AM on Monday 24 Nov 2014 (Local Time) from KVRB Reporting Station
Few Clouds Few Clouds  
Wind Chill: 73°   Ceiling: Unl
Heat Index: 73°   Visibility: 7mi
Dew Point: 73°   Wind: 7mph
Humidity: 100%   Direction: 180°S
Pressure: 30"   Gusts: NA
Location:  27.8606°N, 80.5442°W
Report Text: KVRB 241237Z 18006KT 7SM FEW005 23/23 A3000 RMK AO2 T02280228
Loading
Personal Weather Stations






























Interactive Weather Map New forecast layout! Learn more

10-Day Weather Forecast

Advertisements
Track Severe Weather on mobile